Birds, Illinois
Current Conditions -  °F | °C
As of 4:53 PM on Sunday 21 Dec 2014 (Local Time) from KLWV Reporting Station
Haze Haze  
Wind Chill: 30°   Ceiling: Unl
Heat Index: 35°   Visibility: 6mi
Dew Point: 29°   Wind: 6mph
Humidity: 78%   Direction: 80°E
Pressure: 30.11"   Gusts: NA
Location:  38.84°N, 87.67°W
Report Text: KLWV 212253Z AUTO 08005KT 6SM HZ CLR 02/M02 A3011 RMK AO2 SLP201 T00171017
Loading
Personal Weather Stations






























Interactive Weather Map New forecast layout! Learn more

10-Day Weather Forecast

Advertisements
Track Severe Weather on mobile